sensor_id;sensor_type;location;lat;lon;timestamp;P1;durP1;ratioP1;P2;durP2;ratioP2
68315;SDS011;55508;54.368;18.406;2022-07-06T00:01:05;10.60;;;7.00;;
68315;SDS011;55508;54.368;18.406;2022-07-06T00:03:32;12.25;;;6.18;;
68315;SDS011;55508;54.368;18.406;2022-07-06T00:06:00;8.30;;;6.57;;
68315;SDS011;55508;54.368;18.406;2022-07-06T00:08:27;8.18;;;6.32;;
68315;SDS011;55508;54.368;18.406;2022-07-06T00:10:54;7.32;;;6.72;;
68315;SDS011;55508;54.368;18.406;2022-07-06T00:13:21;12.70;;;6.57;;
68315;SDS011;55508;54.368;18.406;2022-07-06T00:15:48;10.90;;;7.35;;
68315;SDS011;55508;54.368;18.406;2022-07-06T00:18:16;7.57;;;6.80;;
68315;SDS011;55508;54.368;18.406;2022-07-06T00:20:43;8.45;;;6.38;;
68315;SDS011;55508;54.368;18.406;2022-07-06T00:23:10;7.38;;;6.68;;
68315;SDS011;55508;54.368;18.406;2022-07-06T00:25:37;14.43;;;6.70;;
68315;SDS011;55508;54.368;18.406;2022-07-06T00:28:04;7.65;;;6.38;;
68315;SDS011;55508;54.368;18.406;2022-07-06T00:30:31;7.93;;;6.55;;
68315;SDS011;55508;54.368;18.406;2022-07-06T00:32:58;11.30;;;6.80;;
68315;SDS011;55508;54.368;18.406;2022-07-06T00:35:25;9.05;;;7.30;;
68315;SDS011;55508;54.368;18.406;2022-07-06T00:37:53;7.75;;;7.03;;
68315;SDS011;55508;54.368;18.406;2022-07-06T00:40:20;7.50;;;6.80;;
68315;SDS011;55508;54.368;18.406;2022-07-06T00:42:47;9.27;;;7.35;;
68315;SDS011;55508;54.368;18.406;2022-07-06T00:45:16;8.48;;;7.63;;
68315;SDS011;55508;54.368;18.406;2022-07-06T00:47:44;9.85;;;7.30;;
68315;SDS011;55508;54.368;18.406;2022-07-06T00:50:12;10.55;;;7.30;;
68315;SDS011;55508;54.368;18.406;2022-07-06T00:52:47;8.18;;;7.35;;
68315;SDS011;55508;54.368;18.406;2022-07-06T00:55:17;10.02;;;8.35;;
68315;SDS011;55508;54.368;18.406;2022-07-06T00:57:45;8.90;;;8.02;;
68315;SDS011;55508;54.368;18.406;2022-07-06T01:00:13;13.15;;;7.20;;
68315;SDS011;55508;54.368;18.406;2022-07-06T01:02:42;12.43;;;8.57;;
68315;SDS011;55508;54.368;18.406;2022-07-06T01:05:10;8.55;;;7.80;;
68315;SDS011;55508;54.368;18.406;2022-07-06T01:07:40;11.07;;;8.65;;
68315;SDS011;55508;54.368;18.406;2022-07-06T01:10:09;12.02;;;8.90;;
68315;SDS011;55508;54.368;18.406;2022-07-06T01:12:38;9.48;;;8.55;;
68315;SDS011;55508;54.368;18.406;2022-07-06T01:15:08;9.02;;;8.13;;
68315;SDS011;55508;54.368;18.406;2022-07-06T01:17:41;9.43;;;8.40;;
68315;SDS011;55508;54.368;18.406;2022-07-06T01:22:36;8.90;;;8.07;;
68315;SDS011;55508;54.368;18.406;2022-07-06T01:25:03;9.88;;;8.52;;
68315;SDS011;55508;54.368;18.406;2022-07-06T01:27:32;9.38;;;8.25;;
68315;SDS011;55508;54.368;18.406;2022-07-06T01:30:01;9.45;;;8.52;;
68315;SDS011;55508;54.368;18.406;2022-07-06T01:32:28;9.93;;;8.40;;
68315;SDS011;55508;54.368;18.406;2022-07-06T01:34:55;9.80;;;8.57;;
68315;SDS011;55508;54.368;18.406;2022-07-06T01:37:22;14.57;;;8.70;;
68315;SDS011;55508;54.368;18.406;2022-07-06T01:39:49;9.60;;;8.60;;
68315;SDS011;55508;54.368;18.406;2022-07-06T01:42:16;9.50;;;8.55;;
68315;SDS011;55508;54.368;18.406;2022-07-06T01:44:44;9.10;;;8.27;;
68315;SDS011;55508;54.368;18.406;2022-07-06T01:47:13;9.02;;;8.13;;
68315;SDS011;55508;54.368;18.406;2022-07-06T01:49:40;9.00;;;8.13;;
68315;SDS011;55508;54.368;18.406;2022-07-06T01:52:08;8.73;;;8.07;;
68315;SDS011;55508;54.368;18.406;2022-07-06T01:54:35;9.15;;;8.27;;
68315;SDS011;55508;54.368;18.406;2022-07-06T01:57:04;9.60;;;8.50;;
68315;SDS011;55508;54.368;18.406;2022-07-06T01:59:31;9.82;;;7.90;;
68315;SDS011;55508;54.368;18.406;2022-07-06T02:01:58;9.75;;;8.90;;
68315;SDS011;55508;54.368;18.406;2022-07-06T02:04:25;12.57;;;8.82;;
68315;SDS011;55508;54.368;18.406;2022-07-06T02:06:53;9.60;;;8.68;;
68315;SDS011;55508;54.368;18.406;2022-07-06T02:09:20;8.65;;;7.85;;
68315;SDS011;55508;54.368;18.406;2022-07-06T02:11:47;9.02;;;8.18;;
68315;SDS011;55508;54.368;18.406;2022-07-06T02:14:15;9.13;;;8.20;;
68315;SDS011;55508;54.368;18.406;2022-07-06T02:16:42;12.25;;;8.38;;
68315;SDS011;55508;54.368;18.406;2022-07-06T02:19:09;9.57;;;8.05;;
68315;SDS011;55508;54.368;18.406;2022-07-06T02:21:36;8.43;;;7.30;;
68315;SDS011;55508;54.368;18.406;2022-07-06T02:24:03;8.32;;;7.60;;
68315;SDS011;55508;54.368;18.406;2022-07-06T02:26:31;10.25;;;7.53;;
68315;SDS011;55508;54.368;18.406;2022-07-06T02:28:58;8.10;;;6.85;;
68315;SDS011;55508;54.368;18.406;2022-07-06T02:31:25;8.85;;;7.50;;
68315;SDS011;55508;54.368;18.406;2022-07-06T02:33:53;8.32;;;7.10;;
68315;SDS011;55508;54.368;18.406;2022-07-06T02:36:20;10.35;;;7.03;;
68315;SDS011;55508;54.368;18.406;2022-07-06T02:38:47;10.65;;;6.70;;
68315;SDS011;55508;54.368;18.406;2022-07-06T02:41:15;7.35;;;6.45;;
68315;SDS011;55508;54.368;18.406;2022-07-06T02:43:42;7.20;;;5.90;;
68315;SDS011;55508;54.368;18.406;2022-07-06T02:46:09;7.90;;;6.57;;
68315;SDS011;55508;54.368;18.406;2022-07-06T02:48:36;11.88;;;6.60;;
68315;SDS011;55508;54.368;18.406;2022-07-06T02:51:04;7.68;;;6.78;;
68315;SDS011;55508;54.368;18.406;2022-07-06T02:53:32;9.73;;;6.47;;
68315;SDS011;55508;54.368;18.406;2022-07-06T02:56:00;10.82;;;6.38;;
68315;SDS011;55508;54.368;18.406;2022-07-06T02:58:28;7.53;;;6.45;;
68315;SDS011;55508;54.368;18.406;2022-07-06T03:00:55;6.72;;;5.78;;
68315;SDS011;55508;54.368;18.406;2022-07-06T03:03:22;8.25;;;5.90;;
68315;SDS011;55508;54.368;18.406;2022-07-06T03:05:50;7.88;;;5.50;;
68315;SDS011;55508;54.368;18.406;2022-07-06T03:08:18;9.88;;;5.45;;
68315;SDS011;55508;54.368;18.406;2022-07-06T03:10:47;6.20;;;5.20;;
68315;SDS011;55508;54.368;18.406;2022-07-06T03:13:14;5.70;;;4.57;;
68315;SDS011;55508;54.368;18.406;2022-07-06T03:15:41;5.97;;;4.88;;
68315;SDS011;55508;54.368;18.406;2022-07-06T03:18:08;5.93;;;4.78;;
68315;SDS011;55508;54.368;18.406;2022-07-06T03:20:36;5.28;;;4.50;;
68315;SDS011;55508;54.368;18.406;2022-07-06T03:23:05;5.05;;;4.65;;
68315;SDS011;55508;54.368;18.406;2022-07-06T03:25:33;5.63;;;4.70;;
68315;SDS011;55508;54.368;18.406;2022-07-06T03:28:01;6.40;;;4.03;;
68315;SDS011;55508;54.368;18.406;2022-07-06T03:30:28;5.05;;;3.90;;
68315;SDS011;55508;54.368;18.406;2022-07-06T03:32:57;8.32;;;4.70;;
68315;SDS011;55508;54.368;18.406;2022-07-06T03:35:26;6.75;;;3.88;;
68315;SDS011;55508;54.368;18.406;2022-07-06T03:37:54;6.93;;;3.47;;
68315;SDS011;55508;54.368;18.406;2022-07-06T03:40:24;5.50;;;3.30;;
68315;SDS011;55508;54.368;18.406;2022-07-06T03:42:52;6.18;;;3.22;;
68315;SDS011;55508;54.368;18.406;2022-07-06T03:45:19;7.68;;;3.15;;
68315;SDS011;55508;54.368;18.406;2022-07-06T03:47:47;7.20;;;3.22;;
68315;SDS011;55508;54.368;18.406;2022-07-06T03:50:14;6.47;;;2.92;;
68315;SDS011;55508;54.368;18.406;2022-07-06T03:52:41;7.00;;;3.53;;
68315;SDS011;55508;54.368;18.406;2022-07-06T03:55:10;6.97;;;4.10;;
68315;SDS011;55508;54.368;18.406;2022-07-06T03:57:41;10.15;;;4.57;;
68315;SDS011;55508;54.368;18.406;2022-07-06T04:00:13;9.63;;;5.13;;
68315;SDS011;55508;54.368;18.406;2022-07-06T04:02:44;10.95;;;7.63;;
68315;SDS011;55508;54.368;18.406;2022-07-06T04:05:17;8.13;;;6.22;;
68315;SDS011;55508;54.368;18.406;2022-07-06T04:07:50;7.63;;;4.20;;
68315;SDS011;55508;54.368;18.406;2022-07-06T04:10:18;5.80;;;3.70;;
68315;SDS011;55508;54.368;18.406;2022-07-06T04:12:46;6.75;;;3.97;;
68315;SDS011;55508;54.368;18.406;2022-07-06T04:15:15;3.50;;;3.20;;
68315;SDS011;55508;54.368;18.406;2022-07-06T04:17:43;4.45;;;3.33;;
68315;SDS011;55508;54.368;18.406;2022-07-06T04:20:30;5.68;;;2.85;;
68315;SDS011;55508;54.368;18.406;2022-07-06T04:22:57;4.55;;;2.80;;
68315;SDS011;55508;54.368;18.406;2022-07-06T04:25:26;3.92;;;2.70;;
68315;SDS011;55508;54.368;18.406;2022-07-06T04:27:57;4.07;;;2.25;;
68315;SDS011;55508;54.368;18.406;2022-07-06T04:30:26;2.88;;;2.58;;
68315;SDS011;55508;54.368;18.406;2022-07-06T04:32:54;5.22;;;2.10;;
68315;SDS011;55508;54.368;18.406;2022-07-06T04:35:24;2.90;;;2.22;;
68315;SDS011;55508;54.368;18.406;2022-07-06T04:37:52;5.65;;;2.38;;
68315;SDS011;55508;54.368;18.406;2022-07-06T04:40:20;4.97;;;2.13;;
68315;SDS011;55508;54.368;18.406;2022-07-06T04:42:51;5.07;;;1.70;;
68315;SDS011;55508;54.368;18.406;2022-07-06T04:45:19;6.10;;;1.70;;
68315;SDS011;55508;54.368;18.406;2022-07-06T04:47:47;9.02;;;1.90;;
68315;SDS011;55508;54.368;18.406;2022-07-06T04:50:15;3.70;;;1.50;;
68315;SDS011;55508;54.368;18.406;2022-07-06T04:52:43;2.17;;;1.30;;
68315;SDS011;55508;54.368;18.406;2022-07-06T04:55:10;8.60;;;1.58;;
68315;SDS011;55508;54.368;18.406;2022-07-06T04:57:37;3.40;;;1.30;;
68315;SDS011;55508;54.368;18.406;2022-07-06T05:00:05;5.05;;;1.30;;
68315;SDS011;55508;54.368;18.406;2022-07-06T05:02:34;4.80;;;1.25;;
68315;SDS011;55508;54.368;18.406;2022-07-06T05:05:02;5.15;;;1.30;;
68315;SDS011;55508;54.368;18.406;2022-07-06T05:07:29;4.50;;;1.13;;
68315;SDS011;55508;54.368;18.406;2022-07-06T05:09:59;2.92;;;1.10;;
68315;SDS011;55508;54.368;18.406;2022-07-06T05:12:29;2.50;;;1.00;;
68315;SDS011;55508;54.368;18.406;2022-07-06T05:14:56;2.20;;;1.10;;
68315;SDS011;55508;54.368;18.406;2022-07-06T05:17:24;1.63;;;1.10;;
68315;SDS011;55508;54.368;18.406;2022-07-06T05:19:57;3.47;;;1.20;;
68315;SDS011;55508;54.368;18.406;2022-07-06T05:22:25;2.78;;;1.10;;
68315;SDS011;55508;54.368;18.406;2022-07-06T05:24:53;2.58;;;1.38;;
68315;SDS011;55508;54.368;18.406;2022-07-06T05:27:21;4.18;;;1.10;;
68315;SDS011;55508;54.368;18.406;2022-07-06T05:29:48;2.63;;;1.00;;
68315;SDS011;55508;54.368;18.406;2022-07-06T05:32:16;3.25;;;0.95;;
68315;SDS011;55508;54.368;18.406;2022-07-06T05:34:43;3.95;;;1.65;;
68315;SDS011;55508;54.368;18.406;2022-07-06T05:37:11;3.88;;;0.93;;
68315;SDS011;55508;54.368;18.406;2022-07-06T05:39:38;3.38;;;0.82;;
68315;SDS011;55508;54.368;18.406;2022-07-06T05:42:11;4.35;;;0.80;;
68315;SDS011;55508;54.368;18.406;2022-07-06T05:44:40;2.78;;;0.80;;
68315;SDS011;55508;54.368;18.406;2022-07-06T05:47:07;6.07;;;1.20;;
68315;SDS011;55508;54.368;18.406;2022-07-06T05:49:54;1.98;;;0.95;;
68315;SDS011;55508;54.368;18.406;2022-07-06T05:52:55;3.00;;;0.93;;
68315;SDS011;55508;54.368;18.406;2022-07-06T05:55:24;2.65;;;0.80;;
68315;SDS011;55508;54.368;18.406;2022-07-06T05:57:52;3.58;;;0.75;;
68315;SDS011;55508;54.368;18.406;2022-07-06T06:00:21;2.70;;;0.65;;
68315;SDS011;55508;54.368;18.406;2022-07-06T06:02:52;3.58;;;0.80;;
68315;SDS011;55508;54.368;18.406;2022-07-06T06:05:20;4.63;;;0.90;;
68315;SDS011;55508;54.368;18.406;2022-07-06T06:07:54;1.33;;;0.70;;
68315;SDS011;55508;54.368;18.406;2022-07-06T06:10:24;3.38;;;0.90;;
68315;SDS011;55508;54.368;18.406;2022-07-06T06:12:55;5.72;;;0.80;;
68315;SDS011;55508;54.368;18.406;2022-07-06T06:15:22;2.22;;;0.70;;
68315;SDS011;55508;54.368;18.406;2022-07-06T06:17:49;3.50;;;1.00;;
68315;SDS011;55508;54.368;18.406;2022-07-06T06:20:17;4.20;;;0.90;;
68315;SDS011;55508;54.368;18.406;2022-07-06T06:22:48;4.22;;;0.88;;
68315;SDS011;55508;54.368;18.406;2022-07-06T06:25:17;2.25;;;0.77;;
68315;SDS011;55508;54.368;18.406;2022-07-06T06:27:46;3.95;;;0.73;;
68315;SDS011;55508;54.368;18.406;2022-07-06T06:30:13;2.35;;;0.68;;
68315;SDS011;55508;54.368;18.406;2022-07-06T06:32:40;3.83;;;0.73;;
68315;SDS011;55508;54.368;18.406;2022-07-06T06:35:08;1.23;;;0.70;;
68315;SDS011;55508;54.368;18.406;2022-07-06T06:37:35;2.53;;;1.00;;
68315;SDS011;55508;54.368;18.406;2022-07-06T06:40:03;3.58;;;0.63;;
68315;SDS011;55508;54.368;18.406;2022-07-06T06:42:31;2.58;;;0.75;;
68315;SDS011;55508;54.368;18.406;2022-07-06T06:44:59;1.65;;;0.43;;
68315;SDS011;55508;54.368;18.406;2022-07-06T06:47:26;1.85;;;0.60;;
68315;SDS011;55508;54.368;18.406;2022-07-06T06:49:53;1.67;;;0.70;;
68315;SDS011;55508;54.368;18.406;2022-07-06T06:52:20;2.08;;;0.80;;
68315;SDS011;55508;54.368;18.406;2022-07-06T06:55:06;1.73;;;0.80;;
68315;SDS011;55508;54.368;18.406;2022-07-06T06:57:34;4.28;;;0.70;;
68315;SDS011;55508;54.368;18.406;2022-07-06T07:00:02;2.60;;;0.80;;
68315;SDS011;55508;54.368;18.406;2022-07-06T07:02:30;1.65;;;0.80;;
68315;SDS011;55508;54.368;18.406;2022-07-06T07:04:57;3.08;;;0.60;;
68315;SDS011;55508;54.368;18.406;2022-07-06T07:07:24;3.47;;;0.70;;
68315;SDS011;55508;54.368;18.406;2022-07-06T07:09:52;1.80;;;0.52;;
68315;SDS011;55508;54.368;18.406;2022-07-06T07:12:19;1.85;;;0.55;;
68315;SDS011;55508;54.368;18.406;2022-07-06T07:14:46;1.20;;;0.70;;
68315;SDS011;55508;54.368;18.406;2022-07-06T07:17:13;1.65;;;0.60;;
68315;SDS011;55508;54.368;18.406;2022-07-06T07:19:41;3.05;;;0.80;;
68315;SDS011;55508;54.368;18.406;2022-07-06T07:22:08;1.67;;;0.70;;
68315;SDS011;55508;54.368;18.406;2022-07-06T07:24:35;2.13;;;0.70;;
68315;SDS011;55508;54.368;18.406;2022-07-06T07:27:02;2.72;;;0.50;;
68315;SDS011;55508;54.368;18.406;2022-07-06T07:29:29;3.95;;;0.70;;
68315;SDS011;55508;54.368;18.406;2022-07-06T07:31:56;1.95;;;0.80;;
68315;SDS011;55508;54.368;18.406;2022-07-06T07:34:23;1.92;;;0.60;;
68315;SDS011;55508;54.368;18.406;2022-07-06T07:36:50;2.50;;;0.70;;
68315;SDS011;55508;54.368;18.406;2022-07-06T07:39:17;1.38;;;0.50;;
68315;SDS011;55508;54.368;18.406;2022-07-06T07:41:45;1.27;;;0.30;;
68315;SDS011;55508;54.368;18.406;2022-07-06T07:44:12;1.83;;;0.50;;
68315;SDS011;55508;54.368;18.406;2022-07-06T07:46:39;1.27;;;0.52;;
68315;SDS011;55508;54.368;18.406;2022-07-06T07:49:06;2.17;;;0.60;;
68315;SDS011;55508;54.368;18.406;2022-07-06T07:51:35;2.35;;;0.50;;
68315;SDS011;55508;54.368;18.406;2022-07-06T07:54:02;2.63;;;0.57;;
68315;SDS011;55508;54.368;18.406;2022-07-06T07:56:29;2.00;;;0.50;;
68315;SDS011;55508;54.368;18.406;2022-07-06T07:58:56;3.47;;;0.90;;
68315;SDS011;55508;54.368;18.406;2022-07-06T08:01:27;1.33;;;0.50;;
68315;SDS011;55508;54.368;18.406;2022-07-06T08:03:55;1.92;;;0.50;;
68315;SDS011;55508;54.368;18.406;2022-07-06T08:06:22;1.95;;;0.47;;
68315;SDS011;55508;54.368;18.406;2022-07-06T08:08:49;1.70;;;0.50;;
68315;SDS011;55508;54.368;18.406;2022-07-06T08:11:16;2.03;;;0.60;;
68315;SDS011;55508;54.368;18.406;2022-07-06T08:13:45;1.88;;;0.60;;
68315;SDS011;55508;54.368;18.406;2022-07-06T08:16:12;1.95;;;0.80;;
68315;SDS011;55508;54.368;18.406;2022-07-06T08:18:40;3.17;;;0.77;;
68315;SDS011;55508;54.368;18.406;2022-07-06T08:21:07;1.02;;;0.40;;
68315;SDS011;55508;54.368;18.406;2022-07-06T08:23:52;1.05;;;0.50;;
68315;SDS011;55508;54.368;18.406;2022-07-06T08:26:20;1.33;;;0.45;;
68315;SDS011;55508;54.368;18.406;2022-07-06T08:28:47;1.40;;;0.57;;
68315;SDS011;55508;54.368;18.406;2022-07-06T08:31:14;2.05;;;0.70;;
68315;SDS011;55508;54.368;18.406;2022-07-06T08:34:01;1.17;;;0.68;;
68315;SDS011;55508;54.368;18.406;2022-07-06T08:36:29;1.77;;;0.65;;
68315;SDS011;55508;54.368;18.406;2022-07-06T08:38:56;3.88;;;0.80;;
68315;SDS011;55508;54.368;18.406;2022-07-06T08:41:24;1.67;;;0.60;;
68315;SDS011;55508;54.368;18.406;2022-07-06T08:43:52;4.57;;;0.65;;
68315;SDS011;55508;54.368;18.406;2022-07-06T08:46:21;3.05;;;0.63;;
68315;SDS011;55508;54.368;18.406;2022-07-06T08:48:49;3.70;;;0.47;;
68315;SDS011;55508;54.368;18.406;2022-07-06T08:51:18;2.38;;;0.50;;
68315;SDS011;55508;54.368;18.406;2022-07-06T08:53:45;3.08;;;0.40;;
68315;SDS011;55508;54.368;18.406;2022-07-06T08:56:15;0.70;;;0.30;;
68315;SDS011;55508;54.368;18.406;2022-07-06T08:58:43;1.48;;;0.32;;
68315;SDS011;55508;54.368;18.406;2022-07-06T09:01:10;3.67;;;0.50;;
68315;SDS011;55508;54.368;18.406;2022-07-06T09:03:41;1.75;;;0.57;;
68315;SDS011;55508;54.368;18.406;2022-07-06T09:06:08;1.70;;;0.40;;
68315;SDS011;55508;54.368;18.406;2022-07-06T09:08:36;4.03;;;0.60;;
68315;SDS011;55508;54.368;18.406;2022-07-06T09:11:03;1.92;;;0.32;;
68315;SDS011;55508;54.368;18.406;2022-07-06T09:13:30;2.70;;;0.50;;
68315;SDS011;55508;54.368;18.406;2022-07-06T09:16:08;1.17;;;0.50;;
68315;SDS011;55508;54.368;18.406;2022-07-06T09:18:59;1.45;;;0.40;;
68315;SDS011;55508;54.368;18.406;2022-07-06T09:21:27;1.73;;;0.40;;
68315;SDS011;55508;54.368;18.406;2022-07-06T09:23:59;1.58;;;0.50;;
68315;SDS011;55508;54.368;18.406;2022-07-06T09:26:27;1.95;;;0.50;;
68315;SDS011;55508;54.368;18.406;2022-07-06T09:28:54;3.55;;;0.50;;
68315;SDS011;55508;54.368;18.406;2022-07-06T09:31:23;1.48;;;0.28;;
68315;SDS011;55508;54.368;18.406;2022-07-06T09:33:54;2.00;;;0.50;;
68315;SDS011;55508;54.368;18.406;2022-07-06T09:42:00;2.03;;;0.43;;
68315;SDS011;55508;54.368;18.406;2022-07-06T09:44:30;2.40;;;0.70;;
68315;SDS011;55508;54.368;18.406;2022-07-06T09:47:01;1.88;;;0.40;;
68315;SDS011;55508;54.368;18.406;2022-07-06T09:49:32;3.90;;;0.90;;
68315;SDS011;55508;54.368;18.406;2022-07-06T09:52:00;4.05;;;0.50;;
68315;SDS011;55508;54.368;18.406;2022-07-06T09:54:29;0.85;;;0.30;;
68315;SDS011;55508;54.368;18.406;2022-07-06T09:56:56;1.65;;;0.45;;
68315;SDS011;55508;54.368;18.406;2022-07-06T09:59:24;3.20;;;0.80;;
68315;SDS011;55508;54.368;18.406;2022-07-06T10:01:53;2.80;;;0.68;;
68315;SDS011;55508;54.368;18.406;2022-07-06T10:04:23;3.05;;;0.50;;
68315;SDS011;55508;54.368;18.406;2022-07-06T10:06:52;1.13;;;0.30;;
68315;SDS011;55508;54.368;18.406;2022-07-06T10:09:21;0.80;;;0.38;;
68315;SDS011;55508;54.368;18.406;2022-07-06T10:11:56;1.83;;;0.40;;
68315;SDS011;55508;54.368;18.406;2022-07-06T10:14:32;1.40;;;0.40;;
68315;SDS011;55508;54.368;18.406;2022-07-06T10:17:03;0.85;;;0.40;;
68315;SDS011;55508;54.368;18.406;2022-07-06T10:19:32;1.40;;;0.30;;
68315;SDS011;55508;54.368;18.406;2022-07-06T10:22:00;1.98;;;0.32;;
68315;SDS011;55508;54.368;18.406;2022-07-06T10:24:29;1.17;;;0.40;;
68315;SDS011;55508;54.368;18.406;2022-07-06T10:26:57;0.60;;;0.40;;
68315;SDS011;55508;54.368;18.406;2022-07-06T10:29:24;1.20;;;0.30;;
68315;SDS011;55508;54.368;18.406;2022-07-06T10:31:52;2.33;;;0.30;;
68315;SDS011;55508;54.368;18.406;2022-07-06T10:34:21;2.00;;;0.40;;
68315;SDS011;55508;54.368;18.406;2022-07-06T10:36:49;3.13;;;0.50;;
68315;SDS011;55508;54.368;18.406;2022-07-06T10:39:31;2.78;;;0.43;;
68315;SDS011;55508;54.368;18.406;2022-07-06T10:45:07;0.65;;;0.30;;
68315;SDS011;55508;54.368;18.406;2022-07-06T10:47:35;0.73;;;0.30;;
68315;SDS011;55508;54.368;18.406;2022-07-06T10:50:02;1.33;;;0.70;;
68315;SDS011;55508;54.368;18.406;2022-07-06T10:55:32;2.30;;;0.80;;
68315;SDS011;55508;54.368;18.406;2022-07-06T10:58:01;1.48;;;1.00;;
68315;SDS011;55508;54.368;18.406;2022-07-06T11:06:09;1.02;;;0.30;;
68315;SDS011;55508;54.368;18.406;2022-07-06T11:08:43;1.85;;;0.40;;
68315;SDS011;55508;54.368;18.406;2022-07-06T11:11:14;1.02;;;0.30;;
68315;SDS011;55508;54.368;18.406;2022-07-06T11:13:53;0.90;;;0.40;;
68315;SDS011;55508;54.368;18.406;2022-07-06T11:16:30;2.33;;;0.40;;
68315;SDS011;55508;54.368;18.406;2022-07-06T11:26:50;1.08;;;0.40;;
68315;SDS011;55508;54.368;18.406;2022-07-06T11:29:19;2.80;;;0.65;;
68315;SDS011;55508;54.368;18.406;2022-07-06T11:31:49;5.28;;;0.70;;
68315;SDS011;55508;54.368;18.406;2022-07-06T11:34:25;1.50;;;0.52;;
68315;SDS011;55508;54.368;18.406;2022-07-06T11:37:00;2.20;;;0.70;;
68315;SDS011;55508;54.368;18.406;2022-07-06T11:39:30;2.00;;;0.50;;
68315;SDS011;55508;54.368;18.406;2022-07-06T11:41:58;2.25;;;0.55;;
68315;SDS011;55508;54.368;18.406;2022-07-06T11:44:27;1.25;;;0.40;;
68315;SDS011;55508;54.368;18.406;2022-07-06T11:46:54;0.75;;;0.40;;
68315;SDS011;55508;54.368;18.406;2022-07-06T11:49:26;0.80;;;0.40;;
68315;SDS011;55508;54.368;18.406;2022-07-06T11:51:54;0.98;;;0.57;;
68315;SDS011;55508;54.368;18.406;2022-07-06T11:54:21;2.30;;;0.50;;
68315;SDS011;55508;54.368;18.406;2022-07-06T11:59:16;0.90;;;0.40;;
68315;SDS011;55508;54.368;18.406;2022-07-06T12:01:46;1.35;;;0.45;;
68315;SDS011;55508;54.368;18.406;2022-07-06T12:04:13;1.02;;;0.40;;
68315;SDS011;55508;54.368;18.406;2022-07-06T12:06:43;2.10;;;0.60;;
68315;SDS011;55508;54.368;18.406;2022-07-06T12:09:10;4.78;;;0.40;;
68315;SDS011;55508;54.368;18.406;2022-07-06T12:11:37;1.17;;;0.50;;
68315;SDS011;55508;54.368;18.406;2022-07-06T12:14:13;1.40;;;0.40;;
68315;SDS011;55508;54.368;18.406;2022-07-06T12:16:42;1.63;;;0.40;;
68315;SDS011;55508;54.368;18.406;2022-07-06T12:19:10;2.17;;;0.73;;
68315;SDS011;55508;54.368;18.406;2022-07-06T12:21:50;3.47;;;0.50;;
68315;SDS011;55508;54.368;18.406;2022-07-06T12:24:20;13.68;;;0.80;;
68315;SDS011;55508;54.368;18.406;2022-07-06T12:26:48;2.15;;;0.70;;
68315;SDS011;55508;54.368;18.406;2022-07-06T12:29:16;5.32;;;1.30;;
68315;SDS011;55508;54.368;18.406;2022-07-06T12:31:48;5.55;;;1.45;;
68315;SDS011;55508;54.368;18.406;2022-07-06T12:34:26;6.43;;;1.92;;
68315;SDS011;55508;54.368;18.406;2022-07-06T12:36:56;4.25;;;1.60;;
68315;SDS011;55508;54.368;18.406;2022-07-06T12:39:32;4.63;;;2.08;;
68315;SDS011;55508;54.368;18.406;2022-07-06T12:42:15;3.05;;;1.52;;
68315;SDS011;55508;54.368;18.406;2022-07-06T12:44:49;3.25;;;0.90;;
68315;SDS011;55508;54.368;18.406;2022-07-06T12:47:18;1.52;;;0.65;;
68315;SDS011;55508;54.368;18.406;2022-07-06T12:49:49;1.48;;;0.73;;
68315;SDS011;55508;54.368;18.406;2022-07-06T12:52:31;1.88;;;0.70;;
68315;SDS011;55508;54.368;18.406;2022-07-06T12:54:59;5.78;;;0.73;;
68315;SDS011;55508;54.368;18.406;2022-07-06T12:57:48;1.60;;;0.80;;
68315;SDS011;55508;54.368;18.406;2022-07-06T13:00:17;1.85;;;0.63;;
68315;SDS011;55508;54.368;18.406;2022-07-06T13:02:45;2.17;;;0.65;;
68315;SDS011;55508;54.368;18.406;2022-07-06T13:05:34;1.92;;;0.57;;
68315;SDS011;55508;54.368;18.406;2022-07-06T13:08:02;3.08;;;0.90;;
68315;SDS011;55508;54.368;18.406;2022-07-06T13:10:29;2.67;;;0.80;;
68315;SDS011;55508;54.368;18.406;2022-07-06T13:13:00;3.95;;;1.30;;
68315;SDS011;55508;54.368;18.406;2022-07-06T13:15:28;1.60;;;1.27;;
68315;SDS011;55508;54.368;18.406;2022-07-06T13:17:55;2.60;;;1.13;;
68315;SDS011;55508;54.368;18.406;2022-07-06T13:20:22;1.48;;;0.50;;
68315;SDS011;55508;54.368;18.406;2022-07-06T13:22:49;2.97;;;0.52;;
68315;SDS011;55508;54.368;18.406;2022-07-06T13:25:17;1.95;;;0.75;;
68315;SDS011;55508;54.368;18.406;2022-07-06T13:27:44;2.92;;;1.00;;
68315;SDS011;55508;54.368;18.406;2022-07-06T13:30:11;4.45;;;1.02;;
68315;SDS011;55508;54.368;18.406;2022-07-06T13:32:38;3.15;;;0.90;;
68315;SDS011;55508;54.368;18.406;2022-07-06T13:35:06;2.10;;;0.88;;
68315;SDS011;55508;54.368;18.406;2022-07-06T13:37:33;3.38;;;0.98;;
68315;SDS011;55508;54.368;18.406;2022-07-06T13:40:02;3.22;;;1.35;;
68315;SDS011;55508;54.368;18.406;2022-07-06T13:42:30;3.08;;;1.60;;
68315;SDS011;55508;54.368;18.406;2022-07-06T13:44:57;4.45;;;1.20;;
68315;SDS011;55508;54.368;18.406;2022-07-06T13:47:24;4.70;;;1.13;;
68315;SDS011;55508;54.368;18.406;2022-07-06T13:49:51;2.17;;;1.05;;
68315;SDS011;55508;54.368;18.406;2022-07-06T13:52:18;2.63;;;0.93;;
68315;SDS011;55508;54.368;18.406;2022-07-06T13:54:45;1.15;;;1.00;;
68315;SDS011;55508;54.368;18.406;2022-07-06T13:57:13;2.20;;;1.20;;
68315;SDS011;55508;54.368;18.406;2022-07-06T13:59:40;1.27;;;0.70;;
68315;SDS011;55508;54.368;18.406;2022-07-06T14:02:07;2.10;;;0.77;;
68315;SDS011;55508;54.368;18.406;2022-07-06T14:04:34;2.05;;;0.80;;
68315;SDS011;55508;54.368;18.406;2022-07-06T14:07:01;3.05;;;0.88;;
68315;SDS011;55508;54.368;18.406;2022-07-06T14:09:29;1.70;;;0.80;;
68315;SDS011;55508;54.368;18.406;2022-07-06T14:11:56;1.02;;;0.60;;
68315;SDS011;55508;54.368;18.406;2022-07-06T14:14:23;2.05;;;0.50;;
68315;SDS011;55508;54.368;18.406;2022-07-06T14:16:50;0.80;;;0.70;;
68315;SDS011;55508;54.368;18.406;2022-07-06T14:19:18;2.30;;;0.70;;
68315;SDS011;55508;54.368;18.406;2022-07-06T14:21:48;1.92;;;0.73;;
68315;SDS011;55508;54.368;18.406;2022-07-06T14:24:15;3.28;;;0.98;;
68315;SDS011;55508;54.368;18.406;2022-07-06T14:26:43;1.15;;;0.60;;
68315;SDS011;55508;54.368;18.406;2022-07-06T14:29:10;3.30;;;0.55;;
68315;SDS011;55508;54.368;18.406;2022-07-06T14:31:37;1.10;;;0.30;;
68315;SDS011;55508;54.368;18.406;2022-07-06T14:34:04;1.30;;;0.40;;
68315;SDS011;55508;54.368;18.406;2022-07-06T14:36:31;1.17;;;0.30;;
68315;SDS011;55508;54.368;18.406;2022-07-06T14:39:00;1.20;;;0.50;;
68315;SDS011;55508;54.368;18.406;2022-07-06T14:41:27;0.75;;;0.38;;
68315;SDS011;55508;54.368;18.406;2022-07-06T14:43:55;1.58;;;0.50;;
68315;SDS011;55508;54.368;18.406;2022-07-06T14:46:22;0.70;;;0.38;;
68315;SDS011;55508;54.368;18.406;2022-07-06T14:48:49;1.70;;;0.40;;
68315;SDS011;55508;54.368;18.406;2022-07-06T14:51:16;2.47;;;0.60;;
68315;SDS011;55508;54.368;18.406;2022-07-06T14:53:43;1.38;;;0.68;;
68315;SDS011;55508;54.368;18.406;2022-07-06T14:56:10;2.33;;;0.47;;
68315;SDS011;55508;54.368;18.406;2022-07-06T14:58:38;1.42;;;0.40;;
68315;SDS011;55508;54.368;18.406;2022-07-06T15:01:18;1.90;;;0.55;;
68315;SDS011;55508;54.368;18.406;2022-07-06T15:03:45;1.65;;;0.40;;
68315;SDS011;55508;54.368;18.406;2022-07-06T15:06:13;2.38;;;0.82;;
68315;SDS011;55508;54.368;18.406;2022-07-06T15:09:00;2.40;;;1.50;;
68315;SDS011;55508;54.368;18.406;2022-07-06T15:11:31;4.15;;;0.70;;
68315;SDS011;55508;54.368;18.406;2022-07-06T15:13:58;2.80;;;1.10;;